Time;durP1;ratioP1;P1;durP2;ratioP2;P2;SDS_P1;SDS_P2;PMS_P1;PMS_P2;Temp;Humidity;BMP_temperature;BMP_pressure;BME280_temperature;BME280_humidity;BME280_pressure;Samples;Min_cycle;Max_cycle;Signal;HPM_P1;HPM_P2
2022/03/20 00:01:03;;;;;;;8.57;5.32;;;5.60;99.90;;;;;;4962450;28;20042;-76
2022/03/20 00:03:30;;;;;;;6.57;4.35;;;5.50;99.90;;;;;;4937555;28;20050;-76
2022/03/20 00:05:57;;;;;;;10.30;5.45;;;5.50;99.90;;;;;;4970868;28;20043;-75
2022/03/20 00:08:24;;;;;;;10.93;4.90;;;5.50;99.90;;;;;;4976353;28;20043;-76
2022/03/20 00:10:52;;;;;;;7.13;4.80;;;5.60;99.90;;;;;;4971925;28;20137;-76
2022/03/20 00:13:21;;;;;;;7.93;5.18;;;5.60;99.90;;;;;;4988989;28;20053;-76
2022/03/20 00:15:49;;;;;;;7.75;4.95;;;5.60;99.90;;;;;;4989618;28;20469;-76
2022/03/20 00:18:17;;;;;;;9.43;5.10;;;5.50;99.90;;;;;;4984350;28;20039;-76
2022/03/20 00:20:46;;;;;;;8.15;5.38;;;5.60;99.90;;;;;;4970138;28;20445;-75
2022/03/20 00:23:12;;;;;;;10.05;5.22;;;5.50;99.90;;;;;;4985714;28;20054;-77
2022/03/20 00:25:41;;;;;;;10.40;5.75;;;5.50;99.90;;;;;;4985474;28;20082;-76
2022/03/20 00:28:07;;;;;;;9.65;4.40;;;5.50;99.90;;;;;;4971901;28;20047;-76
2022/03/20 00:30:34;;;;;;;7.38;4.95;;;5.50;99.90;;;;;;4973089;28;20123;-76
2022/03/20 00:33:00;;;;;;;8.48;4.88;;;5.50;99.90;;;;;;4963574;28;20346;-76
2022/03/20 00:35:25;;;;;;;8.35;6.63;;;5.60;99.90;;;;;;4956457;28;20454;-76
2022/03/20 00:37:51;;;;;;;10.45;5.40;;;5.40;99.90;;;;;;4987208;28;20101;-75
2022/03/20 00:40:17;;;;;;;10.45;5.28;;;5.40;99.90;;;;;;4972642;28;20415;-76
2022/03/20 00:42:42;;;;;;;8.23;5.63;;;5.40;99.90;;;;;;4964467;28;20042;-76
2022/03/20 00:45:08;;;;;;;8.13;5.10;;;5.30;99.90;;;;;;4953364;29;20450;-76
2022/03/20 00:47:34;;;;;;;9.82;5.55;;;5.30;99.90;;;;;;4948130;28;20053;-76
2022/03/20 00:50:00;;;;;;;6.68;4.93;;;5.20;99.90;;;;;;4953377;28;20039;-75
2022/03/20 00:52:25;;;;;;;8.25;4.75;;;5.20;99.90;;;;;;4937063;29;20039;-76
2022/03/20 00:54:51;;;;;;;7.60;4.80;;;5.30;99.90;;;;;;4936795;29;20046;-76
2022/03/20 00:57:17;;;;;;;9.10;4.93;;;5.20;99.90;;;;;;4953079;29;20039;-76
2022/03/20 00:59:43;;;;;;;10.60;5.30;;;5.20;99.90;;;;;;4954343;28;20113;-76
2022/03/20 01:02:09;;;;;;;8.27;5.60;;;5.20;99.90;;;;;;4937304;28;20050;-76
2022/03/20 01:04:36;;;;;;;8.70;4.93;;;5.20;99.90;;;;;;4953101;28;20490;-76
2022/03/20 01:07:03;;;;;;;9.65;5.82;;;5.20;99.90;;;;;;4968725;28;20410;-76
2022/03/20 01:09:31;;;;;;;8.32;5.18;;;5.10;99.90;;;;;;4952673;29;20486;-75
2022/03/20 01:11:58;;;;;;;9.93;5.63;;;5.10;99.90;;;;;;4963350;28;20081;-76
2022/03/20 01:14:25;;;;;;;8.50;4.95;;;5.10;99.90;;;;;;4972070;28;20394;-76
2022/03/20 01:16:54;;;;;;;11.55;6.15;;;5.10;99.90;;;;;;4969919;28;20074;-76
2022/03/20 01:19:24;;;;;;;10.43;5.78;;;5.10;99.90;;;;;;4971523;28;20039;-76
2022/03/20 01:21:51;;;;;;;11.50;5.72;;;5.10;99.90;;;;;;4962668;28;20075;-76
2022/03/20 01:24:16;;;;;;;11.32;6.68;;;5.00;99.90;;;;;;4952478;29;20105;-75
2022/03/20 01:26:42;;;;;;;12.35;6.45;;;5.00;99.90;;;;;;4936497;29;20483;-75
2022/03/20 01:29:08;;;;;;;11.93;7.50;;;5.00;99.90;;;;;;4952557;28;20047;-76
2022/03/20 01:31:34;;;;;;;14.70;6.93;;;4.90;99.90;;;;;;4944545;28;20043;-76
2022/03/20 01:34:00;;;;;;;9.63;6.15;;;4.90;99.90;;;;;;4971035;28;20047;-76
2022/03/20 01:36:27;;;;;;;12.57;6.43;;;4.90;99.90;;;;;;4971809;28;20386;-76
2022/03/20 01:38:52;;;;;;;11.00;6.68;;;4.90;99.90;;;;;;4953917;28;20047;-76
2022/03/20 01:41:18;;;;;;;11.23;6.60;;;4.90;99.90;;;;;;4952336;29;20051;-75
2022/03/20 01:44:01;;;;;;;13.10;7.72;;;4.90;99.90;;;;;;4936231;29;20490;-76
2022/03/20 01:46:27;;;;;;;13.52;7.82;;;4.90;99.90;;;;;;4945328;29;20039;-76
2022/03/20 01:48:53;;;;;;;13.30;7.68;;;4.90;99.90;;;;;;4971192;28;20042;-76
2022/03/20 01:54:04;;;;;;;13.48;8.27;;;4.90;99.90;;;;;;4971088;28;20047;-76
2022/03/20 01:56:33;;;;;;;13.10;8.40;;;4.80;99.90;;;;;;4971602;28;20046;-76
2022/03/20 01:59:01;;;;;;;15.90;9.63;;;4.80;99.90;;;;;;4971291;28;20043;-75
2022/03/20 02:01:26;;;;;;;11.30;7.57;;;4.80;99.90;;;;;;4970848;28;20421;-75
2022/03/20 02:03:53;;;;;;;14.07;9.13;;;4.80;99.90;;;;;;4973913;28;20051;-75
2022/03/20 02:06:19;;;;;;;14.07;8.60;;;4.60;99.90;;;;;;4948417;28;20050;-75
2022/03/20 02:08:45;;;;;;;16.02;9.27;;;4.80;99.90;;;;;;4952990;28;20118;-76
2022/03/20 02:11:10;;;;;;;13.20;7.97;;;4.70;99.90;;;;;;4936042;29;20043;-76
2022/03/20 02:13:36;;;;;;;14.60;9.02;;;4.70;99.90;;;;;;4952784;28;20050;-75
2022/03/20 02:16:02;;;;;;;11.60;7.22;;;4.60;99.90;;;;;;4952006;28;20050;-76
2022/03/20 02:18:27;;;;;;;13.18;8.55;;;4.60;99.90;;;;;;4968196;28;20134;-76
2022/03/20 02:20:55;;;;;;;14.43;8.63;;;4.60;99.90;;;;;;4972603;28;20095;-75
2022/03/20 02:23:20;;;;;;;15.35;10.07;;;4.50;99.90;;;;;;4967920;28;20122;-77
2022/03/20 02:25:51;;;;;;;13.93;8.88;;;4.40;99.90;;;;;;4965789;28;20035;-76
2022/03/20 02:28:17;;;;;;;16.42;9.25;;;4.30;99.90;;;;;;4987268;28;20046;-77
2022/03/20 02:30:43;;;;;;;13.77;8.00;;;4.30;99.90;;;;;;4974072;28;20537;-75
2022/03/20 02:33:09;;;;;;;14.68;8.68;;;4.20;99.90;;;;;;4961678;28;20094;-76
2022/03/20 02:35:36;;;;;;;14.52;8.27;;;4.10;99.90;;;;;;4972521;28;20043;-76
2022/03/20 02:38:02;;;;;;;14.50;8.48;;;4.10;99.90;;;;;;4955710;29;20071;-76
2022/03/20 02:40:28;;;;;;;12.85;8.95;;;4.10;99.90;;;;;;4955502;28;20047;-75
2022/03/20 02:42:54;;;;;;;14.35;9.25;;;4.00;99.90;;;;;;4964291;28;20065;-76
2022/03/20 02:45:28;;;;;;;12.73;8.73;;;3.90;99.90;;;;;;4955513;29;20047;-76
2022/03/20 02:47:54;;;;;;;15.23;9.02;;;3.90;99.90;;;;;;4969493;28;20090;-76
2022/03/20 02:50:27;;;;;;;13.50;8.35;;;3.80;99.90;;;;;;4955365;29;20497;-76
2022/03/20 02:52:58;;;;;;;11.85;7.57;;;3.80;99.90;;;;;;4958590;28;20078;-75
2022/03/20 02:55:27;;;;;;;12.80;8.68;;;3.80;99.90;;;;;;4954643;29;20125;-76
2022/03/20 02:57:55;;;;;;;15.48;9.05;;;3.70;99.90;;;;;;4971434;28;20047;-76
2022/03/20 03:00:26;;;;;;;12.88;8.32;;;3.70;99.90;;;;;;4955075;29;20051;-75
2022/03/20 03:02:56;;;;;;;13.60;8.88;;;3.60;99.90;;;;;;4943968;29;20414;-75
2022/03/20 03:05:24;;;;;;;14.05;8.88;;;3.60;99.90;;;;;;4943523;28;20043;-76
2022/03/20 03:10:56;;;;;;;14.65;9.35;;;3.50;99.90;;;;;;4970960;28;20051;-75
2022/03/20 03:13:28;;;;;;;13.52;7.70;;;3.50;99.90;;;;;;4938568;29;20035;-76
2022/03/20 03:16:02;;;;;;;12.52;7.88;;;3.50;99.90;;;;;;4939677;28;20047;-76
2022/03/20 03:18:28;;;;;;;14.02;9.98;;;3.50;99.90;;;;;;4957859;28;20121;-76
2022/03/20 03:20:54;;;;;;;15.35;10.80;;;3.50;99.90;;;;;;4990071;28;20544;-76
2022/03/20 03:23:20;;;;;;;12.48;8.25;;;3.40;99.90;;;;;;4970404;28;20570;-75
2022/03/20 03:25:47;;;;;;;13.55;7.68;;;3.40;99.90;;;;;;4954582;29;20491;-76
2022/03/20 03:28:12;;;;;;;14.43;8.75;;;3.40;99.90;;;;;;4970017;28;20043;-76
2022/03/20 03:30:41;;;;;;;12.77;8.82;;;3.40;99.90;;;;;;4988541;28;20049;-76
2022/03/20 03:33:06;;;;;;;15.68;9.10;;;3.40;99.90;;;;;;4973676;28;20046;-75
2022/03/20 03:38:18;;;;;;;14.23;8.77;;;3.40;99.90;;;;;;4971070;28;20425;-76
2022/03/20 03:40:46;;;;;;;13.20;7.32;;;3.40;99.90;;;;;;4983589;28;20417;-76
2022/03/20 03:43:14;;;;;;;15.27;10.18;;;3.40;99.90;;;;;;4953524;28;20074;-76
2022/03/20 03:45:40;;;;;;;15.43;9.68;;;3.30;99.90;;;;;;4965192;28;20169;-76
2022/03/20 03:48:07;;;;;;;15.35;9.52;;;3.30;99.90;;;;;;4954225;29;20093;-75
2022/03/20 03:50:34;;;;;;;14.07;8.98;;;3.30;99.90;;;;;;4970279;28;20508;-75
2022/03/20 03:53:00;;;;;;;16.45;10.20;;;3.30;99.90;;;;;;4955236;28;20050;-75
2022/03/20 03:55:25;;;;;;;15.82;10.65;;;3.20;99.90;;;;;;4953963;28;20047;-76
2022/03/20 03:57:52;;;;;;;15.68;9.63;;;3.30;99.90;;;;;;4939436;28;20108;-76
2022/03/20 04:00:21;;;;;;;15.65;10.05;;;3.30;99.90;;;;;;4986182;28;20039;-76
2022/03/20 04:02:48;;;;;;;19.10;10.43;;;3.20;99.90;;;;;;4938023;29;20047;-75
2022/03/20 04:05:15;;;;;;;18.25;11.02;;;3.20;99.90;;;;;;4953745;29;20494;-76
2022/03/20 04:07:41;;;;;;;15.77;10.35;;;3.20;99.90;;;;;;4939407;28;20039;-76
2022/03/20 04:10:08;;;;;;;16.02;10.13;;;3.20;99.90;;;;;;4973197;28;20043;-76
2022/03/20 04:12:38;;;;;;;17.65;10.48;;;3.20;99.90;;;;;;4969135;28;20054;-76
2022/03/20 04:15:10;;;;;;;14.48;9.02;;;3.20;99.90;;;;;;4953595;28;20039;-76
2022/03/20 04:17:37;;;;;;;;;;;3.20;99.90;;;;;;4954242;29;20043;-76
2022/03/20 04:20:03;;;;;;;19.33;10.43;;;3.20;99.90;;;;;;4953927;29;19918;-75
2022/03/20 04:22:29;;;;;;;14.30;9.43;;;3.20;99.90;;;;;;4953457;29;20082;-75
2022/03/20 04:24:55;;;;;;;14.57;9.77;;;3.20;99.90;;;;;;4968931;28;20046;-76
2022/03/20 04:27:22;;;;;;;15.90;11.10;;;3.20;99.90;;;;;;4962258;28;20044;-78
2022/03/20 04:29:48;;;;;;;15.75;10.43;;;3.20;99.90;;;;;;4938777;29;20035;-78
2022/03/20 04:32:14;;;;;;;14.38;10.25;;;3.20;99.90;;;;;;4947637;29;20132;-77
2022/03/20 04:34:40;;;;;;;17.15;9.52;;;3.10;99.90;;;;;;4951827;28;20045;-77
2022/03/20 04:37:07;;;;;;;12.45;8.77;;;3.10;99.90;;;;;;4974788;28;20520;-78
2022/03/20 04:39:38;;;;;;;15.63;9.32;;;3.10;99.90;;;;;;4958868;28;20454;-77
2022/03/20 04:42:05;;;;;;;19.45;11.65;;;3.10;99.90;;;;;;4976254;28;20504;-78
2022/03/20 04:44:31;;;;;;;16.90;10.80;;;3.00;99.90;;;;;;4957407;28;20053;-77
2022/03/20 04:46:57;;;;;;;16.13;9.77;;;2.90;99.90;;;;;;4974296;28;20130;-77
2022/03/20 05:00:21;;;;;;;17.83;10.93;;;3.00;99.90;;;;;;4954672;28;20175;-78
2022/03/20 05:02:48;;;;;;;18.33;12.25;;;3.00;99.90;;;;;;4969781;28;20069;-74
2022/03/20 05:05:17;;;;;;;19.90;12.55;;;2.90;99.90;;;;;;4992715;28;20078;-74
2022/03/20 05:07:43;;;;;;;15.02;10.10;;;3.00;99.90;;;;;;4969155;28;20043;-77
2022/03/20 05:15:39;;;;;;;18.35;12.45;;;3.00;99.90;;;;;;4971058;28;20077;-74
2022/03/20 05:18:07;;;;;;;18.67;14.07;;;2.90;99.90;;;;;;4972168;28;20133;-74
2022/03/20 05:20:33;;;;;;;20.65;13.13;;;2.90;99.90;;;;;;4988260;28;20054;-74
2022/03/20 05:22:59;;;;;;;18.85;13.15;;;2.90;99.90;;;;;;4955320;28;20050;-74
2022/03/20 05:25:28;;;;;;;20.67;14.15;;;2.90;99.90;;;;;;4971770;28;20083;-75
2022/03/20 05:27:54;;;;;;;17.42;11.32;;;2.80;99.90;;;;;;4971824;28;20080;-75
2022/03/20 05:30:20;;;;;;;22.85;12.73;;;2.90;99.90;;;;;;4971587;28;20050;-74
2022/03/20 05:32:47;;;;;;;18.20;11.68;;;2.90;99.90;;;;;;4958539;28;20047;-74
2022/03/20 05:35:12;;;;;;;15.68;10.93;;;2.90;99.90;;;;;;4952642;28;20035;-74
2022/03/20 05:37:38;;;;;;;20.58;13.63;;;2.90;99.90;;;;;;4938546;29;20415;-75
2022/03/20 05:40:05;;;;;;;15.38;10.50;;;2.90;99.90;;;;;;4955480;28;20073;-74
2022/03/20 05:42:30;;;;;;;20.42;12.30;;;2.90;99.90;;;;;;4971610;28;20051;-75
2022/03/20 05:44:56;;;;;;;16.95;11.02;;;2.90;99.90;;;;;;4970787;28;20375;-74
2022/03/20 05:47:22;;;;;;;17.38;11.65;;;2.90;99.90;;;;;;4955496;28;20074;-75
2022/03/20 05:49:48;;;;;;;17.73;10.95;;;2.90;99.90;;;;;;4963729;28;20039;-75
2022/03/20 05:52:15;;;;;;;15.93;10.90;;;2.90;99.90;;;;;;4968111;28;20482;-75
2022/03/20 05:54:41;;;;;;;18.42;11.57;;;2.90;99.90;;;;;;4967979;28;20043;-74
2022/03/20 05:59:54;;;;;;;20.08;11.05;;;3.00;99.90;;;;;;4984444;28;20050;-74
2022/03/20 06:02:21;;;;;;;17.90;12.57;;;2.90;99.90;;;;;;4984298;28;20098;-74
2022/03/20 06:04:47;;;;;;;17.75;11.88;;;3.00;99.90;;;;;;4970965;28;20065;-74
2022/03/20 06:07:12;;;;;;;15.68;10.63;;;2.90;99.90;;;;;;4955585;28;20047;-74
2022/03/20 06:09:38;;;;;;;19.25;12.13;;;3.00;99.90;;;;;;4975640;28;20074;-76
2022/03/20 06:12:06;;;;;;;14.13;9.90;;;3.00;99.90;;;;;;4974073;28;20049;-75
2022/03/20 06:14:35;;;;;;;19.58;11.02;;;3.00;99.90;;;;;;4955814;28;20442;-74
2022/03/20 06:17:04;;;;;;;19.17;12.73;;;3.10;99.90;;;;;;4956134;29;20529;-74
2022/03/20 06:19:30;;;;;;;21.55;12.48;;;3.00;99.90;;;;;;4943634;29;20047;-72
2022/03/20 06:21:55;;;;;;;18.92;13.32;;;3.10;99.90;;;;;;4958840;28;20053;-73
2022/03/20 06:24:21;;;;;;;19.13;11.23;;;3.10;99.90;;;;;;4964923;28;20042;-73
2022/03/20 06:26:47;;;;;;;16.35;11.88;;;3.10;99.90;;;;;;4973836;28;20177;-73
2022/03/20 06:29:13;;;;;;;22.55;13.55;;;3.10;99.90;;;;;;4990672;28;20039;-74
2022/03/20 06:31:50;;;;;;;19.08;11.43;;;3.10;99.90;;;;;;4957460;28;20051;-78
2022/03/20 06:34:20;;;;;;;18.33;13.77;;;3.10;99.90;;;;;;4948635;29;20027;-77
2022/03/20 06:36:49;;;;;;;18.35;13.07;;;3.10;99.90;;;;;;4955914;28;20091;-78
2022/03/20 06:39:25;;;;;;;27.65;14.32;;;3.10;99.90;;;;;;4955224;29;20054;-77
2022/03/20 06:42:02;;;;;;;19.85;13.85;;;3.10;99.90;;;;;;4943220;28;20461;-78
2022/03/20 06:44:33;;;;;;;23.50;14.95;;;3.10;99.90;;;;;;4944188;28;20041;-79
2022/03/20 06:47:06;;;;;;;20.30;13.43;;;3.10;99.90;;;;;;4973461;28;20076;-79
2022/03/20 06:50:03;;;;;;;20.83;13.93;;;3.20;99.90;;;;;;4962352;28;20051;-79
2022/03/20 06:55:48;;;;;;;20.70;13.18;;;3.20;99.90;;;;;;4987704;28;20039;-78
2022/03/20 06:58:17;;;;;;;22.65;13.38;;;3.20;99.10;;;;;;4972317;28;20146;-75
2022/03/20 07:00:46;;;;;;;22.33;14.77;;;3.20;98.90;;;;;;4967264;28;20113;-77
2022/03/20 07:03:15;;;;;;;18.85;13.32;;;3.30;99.20;;;;;;4944189;28;20043;-78
2022/03/20 07:05:50;;;;;;;23.73;15.02;;;3.40;98.40;;;;;;4959129;28;20066;-78
2022/03/20 07:08:39;;;;;;;19.98;13.98;;;3.40;99.10;;;;;;4974483;28;20038;-78
2022/03/20 07:11:20;;;;;;;20.00;11.60;;;3.50;97.50;;;;;;4957438;28;20050;-78
2022/03/20 07:13:57;;;;;;;18.05;12.50;;;3.50;96.00;;;;;;4957286;28;20121;-78
2022/03/20 07:16:29;;;;;;;18.42;11.68;;;3.60;95.90;;;;;;4968794;28;20042;-77
2022/03/20 07:19:08;;;;;;;18.58;12.48;;;3.70;94.80;;;;;;4942313;29;20043;-77
2022/03/20 07:43:22;;;;;;;19.67;13.90;;;4.10;91.10;;;;;;4884338;29;20128;-78
2022/03/20 07:50:12;;;;;;;18.15;12.20;;;4.20;90.00;;;;;;4878236;29;20131;-80
2022/03/20 08:12:09;;;;;;;19.63;12.48;;;4.80;81.10;;;;;;4840443;29;20127;-78
2022/03/20 08:19:13;;;;;;;;;;;;;;;;;;;;;
2022/03/20 08:36:21;;;;;;;19.40;13.07;;;5.30;75.50;;;;;;5201684;23;20111;-79
2022/03/20 08:51:40;;;;;;;22.42;14.80;;;5.70;72.00;;;;;;4895223;29;20134;-79
2022/03/20 08:55:19;;;;;;;;;;;;;;;;;;;;;
2022/03/20 08:58:50;;;;;;;;;;;;;;;;;;;;;
2022/03/20 09:21:35;;;;;;;19.58;14.45;;;8.60;61.20;;;;;;4974658;28;20134;-76
2022/03/20 09:24:06;;;;;;;20.52;16.38;;;9.10;57.30;;;;;;4963703;28;20035;-76
2022/03/20 09:26:32;;;;;;;25.75;18.45;;;9.20;56.70;;;;;;4956850;23;20126;-75
2022/03/20 09:28:57;;;;;;;22.50;17.20;;;9.30;57.20;;;;;;4971044;28;20471;-75
2022/03/20 09:31:24;;;;;;;25.02;16.92;;;9.40;55.80;;;;;;4985008;28;20129;-75
2022/03/20 09:33:50;;;;;;;25.90;16.27;;;9.50;53.90;;;;;;4969468;28;20165;-75
2022/03/20 09:36:16;;;;;;;20.25;15.98;;;9.40;54.20;;;;;;4965499;28;20137;-74
2022/03/20 09:38:41;;;;;;;22.88;17.10;;;9.40;54.70;;;;;;4951069;29;20067;-74
2022/03/20 09:41:08;;;;;;;20.98;16.00;;;9.50;54.00;;;;;;4946059;28;20066;-74
2022/03/20 09:43:36;;;;;;;21.23;15.10;;;9.50;54.70;;;;;;4950186;28;20715;-75
2022/03/20 09:46:05;;;;;;;21.45;16.02;;;9.70;54.50;;;;;;4932973;29;20051;-74
2022/03/20 09:48:35;;;;;;;22.42;15.38;;;9.90;53.90;;;;;;4947080;29;20047;-74
2022/03/20 09:51:02;;;;;;;22.15;16.08;;;10.00;53.30;;;;;;4950851;28;20101;-76
2022/03/20 09:53:29;;;;;;;22.85;16.80;;;10.00;54.30;;;;;;4946506;29;20555;-76
2022/03/20 09:55:55;;;;;;;20.58;15.90;;;10.20;53.00;;;;;;4945872;29;20067;-76
2022/03/20 09:58:28;;;;;;;24.90;17.35;;;10.30;53.30;;;;;;4934340;29;20126;-76
2022/03/20 10:00:54;;;;;;;;;;;10.40;52.50;;;;;;4934874;29;20122;-76
2022/03/20 10:03:24;;;;;;;20.35;15.18;;;10.60;52.90;;;;;;4951999;29;20045;-76
2022/03/20 10:06:15;;;;;;;23.92;18.00;;;10.70;52.00;;;;;;4950276;28;20567;-76
2022/03/20 10:09:02;;;;;;;25.02;18.08;;;10.70;51.90;;;;;;4946760;29;20417;-77
2022/03/20 10:11:27;;;;;;;26.85;16.25;;;10.80;52.00;;;;;;4944008;29;20062;-76
2022/03/20 10:14:09;;;;;;;24.27;17.88;;;11.00;50.80;;;;;;4951654;29;20397;-75
2022/03/20 10:16:50;;;;;;;22.85;16.23;;;11.00;51.70;;;;;;4952196;28;20124;-75
2022/03/20 10:19:22;;;;;;;22.08;16.85;;;11.10;51.00;;;;;;4951240;29;20039;-75
2022/03/20 10:21:51;;;;;;;21.70;17.83;;;11.10;50.30;;;;;;4946276;29;20082;-75
2022/03/20 10:24:20;;;;;;;20.73;15.63;;;11.00;52.00;;;;;;4946498;28;20039;-75
2022/03/20 10:26:59;;;;;;;25.63;19.98;;;11.10;50.70;;;;;;4953891;28;20053;-75
2022/03/20 10:29:25;;;;;;;23.27;18.30;;;11.10;51.70;;;;;;4950511;28;20251;-75
2022/03/20 10:31:53;;;;;;;24.67;19.10;;;11.30;51.50;;;;;;4951043;28;20118;-75
2022/03/20 10:34:19;;;;;;;25.10;17.58;;;11.50;51.10;;;;;;4950711;28;20082;-75
2022/03/20 10:36:46;;;;;;;25.48;18.38;;;11.50;51.00;;;;;;4949473;28;20105;-76
2022/03/20 10:39:15;;;;;;;20.70;15.70;;;11.60;50.60;;;;;;4966455;28;20406;-76
2022/03/20 10:41:41;;;;;;;19.55;15.32;;;11.80;49.30;;;;;;4948850;29;20039;-75
2022/03/20 10:44:18;;;;;;;26.27;19.92;;;11.80;49.20;;;;;;4953605;28;20043;-75
2022/03/20 10:46:55;;;;;;;23.90;17.48;;;11.80;50.20;;;;;;4943186;29;20115;-75
2022/03/20 10:49:21;;;;;;;22.58;16.92;;;12.00;49.40;;;;;;4941627;29;20062;-76
2022/03/20 10:52:02;;;;;;;25.30;18.65;;;12.00;49.70;;;;;;4952709;28;20498;-76
2022/03/20 10:54:45;;;;;;;20.20;15.13;;;12.00;49.50;;;;;;4948560;28;20039;-76
2022/03/20 10:57:12;;;;;;;25.35;19.45;;;12.20;48.50;;;;;;4944499;28;20425;-76
2022/03/20 10:59:39;;;;;;;26.52;19.38;;;12.10;50.10;;;;;;4940245;29;20043;-76
2022/03/20 11:02:08;;;;;;;24.40;17.80;;;12.10;48.70;;;;;;4953907;28;20051;-76
2022/03/20 11:04:34;;;;;;;22.85;17.70;;;12.10;49.10;;;;;;4951643;28;20401;-76
2022/03/20 11:07:03;;;;;;;24.92;18.55;;;12.20;49.00;;;;;;4955914;28;20039;-76
2022/03/20 11:09:29;;;;;;;26.98;20.10;;;12.20;49.20;;;;;;4947042;28;20050;-76
2022/03/20 11:11:57;;;;;;;26.38;19.08;;;12.10;49.60;;;;;;4952870;28;20043;-76
2022/03/20 11:14:25;;;;;;;24.55;16.67;;;12.30;49.40;;;;;;4945988;29;20093;-76
2022/03/20 11:16:55;;;;;;;22.90;16.40;;;12.60;50.10;;;;;;4967497;28;20045;-76
2022/03/20 11:19:25;;;;;;;25.25;19.95;;;12.90;48.30;;;;;;4937662;29;20043;-77
2022/03/20 11:21:54;;;;;;;27.17;21.48;;;13.10;49.40;;;;;;4945582;29;20505;-77
2022/03/20 11:24:20;;;;;;;28.38;19.75;;;13.50;50.00;;;;;;4937805;29;20114;-76
2022/03/20 11:26:49;;;;;;;27.35;20.00;;;13.60;46.80;;;;;;4953500;29;20548;-77
2022/03/20 11:29:23;;;;;;;25.70;20.55;;;13.60;47.10;;;;;;4935590;29;20589;-77
2022/03/20 11:31:49;;;;;;;25.27;20.20;;;13.70;49.10;;;;;;4935621;29;20047;-76
2022/03/20 11:34:16;;;;;;;28.35;20.88;;;14.10;48.70;;;;;;4946844;29;20425;-78
2022/03/20 11:37:00;;;;;;;25.35;20.83;;;14.30;46.10;;;;;;4954545;29;20043;-76
2022/03/20 11:39:25;;;;;;;26.55;20.95;;;14.40;46.20;;;;;;4954497;29;20083;-77
2022/03/20 11:42:26;;;;;;;24.20;19.63;;;14.60;46.60;;;;;;4940068;29;20070;-77
2022/03/20 11:45:04;;;;;;;22.80;15.73;;;14.90;44.70;;;;;;4945544;29;20126;-76
2022/03/20 11:47:32;;;;;;;24.02;20.33;;;14.70;44.20;;;;;;4943183;28;20054;-76
2022/03/20 11:50:06;;;;;;;28.83;21.60;;;14.50;44.50;;;;;;4953159;29;20042;-77
2022/03/20 11:53:00;;;;;;;27.45;22.20;;;14.60;46.40;;;;;;4929595;29;20045;-82
2022/03/20 11:55:46;;;;;;;;;;;14.70;46.00;;;;;;4952262;29;20039;-76
2022/03/20 11:58:20;;;;;;;27.80;21.75;;;14.70;46.40;;;;;;4946414;28;19918;-77
2022/03/20 12:01:02;;;;;;;25.27;21.25;;;14.60;46.30;;;;;;4950555;29;20050;-76
2022/03/20 12:03:52;;;;;;;24.85;20.55;;;14.40;46.50;;;;;;4950025;29;20051;-76
2022/03/20 12:06:45;;;;;;;25.00;19.35;;;14.40;47.50;;;;;;4943133;28;20517;-77
2022/03/20 12:09:22;;;;;;;27.10;22.20;;;14.40;46.20;;;;;;4947483;29;20043;-75
2022/03/20 12:12:18;;;;;;;24.70;20.42;;;14.20;46.60;;;;;;4937940;29;20080;-80
2022/03/20 12:14:53;;;;;;;24.70;20.25;;;13.90;46.20;;;;;;4948992;28;20035;-77
2022/03/20 12:17:18;;;;;;;26.48;21.80;;;13.30;47.00;;;;;;4949754;28;20497;-75
2022/03/20 12:19:49;;;;;;;25.83;21.02;;;12.90;48.10;;;;;;4942748;29;20045;-76
2022/03/20 12:22:29;;;;;;;26.17;21.67;;;12.50;48.70;;;;;;4951985;28;20401;-76
2022/03/20 12:24:57;;;;;;;24.75;20.50;;;12.20;49.70;;;;;;4946890;29;20040;-76
2022/03/20 12:27:22;;;;;;;28.80;20.13;;;12.20;48.90;;;;;;4934182;29;20079;-75
2022/03/20 12:29:48;;;;;;;28.02;22.15;;;12.20;48.60;;;;;;4948839;29;20078;-77
2022/03/20 12:32:15;;;;;;;29.67;21.58;;;12.10;49.40;;;;;;4938243;29;20039;-76
2022/03/20 12:34:42;;;;;;;23.98;20.40;;;11.70;50.80;;;;;;4936936;29;20071;-76
2022/03/20 12:37:33;;;;;;;27.92;21.70;;;11.80;49.20;;;;;;4953082;28;20057;-75
2022/03/20 12:40:18;;;;;;;27.38;21.25;;;11.60;49.70;;;;;;4953459;29;20054;-76
2022/03/20 12:43:10;;;;;;;30.70;20.80;;;11.30;50.60;;;;;;4949192;29;20071;-75
2022/03/20 12:45:41;;;;;;;27.75;21.65;;;11.20;50.40;;;;;;4949764;29;20451;-75
2022/03/20 12:48:10;;;;;;;29.73;22.52;;;10.80;51.50;;;;;;4953279;29;20114;-76
2022/03/20 12:50:37;;;;;;;27.65;19.92;;;10.70;52.20;;;;;;4953235;29;20122;-76
2022/03/20 12:53:09;;;;;;;26.40;20.02;;;10.50;53.00;;;;;;4934819;29;20438;-75
2022/03/20 12:55:37;;;;;;;28.48;20.70;;;10.50;52.70;;;;;;4949396;29;20074;-76
2022/03/20 12:58:03;;;;;;;29.98;22.27;;;10.60;52.20;;;;;;4953179;28;20039;-75
2022/03/20 13:00:32;;;;;;;28.38;21.45;;;10.50;52.90;;;;;;4952738;29;20114;-76
2022/03/20 13:03:18;;;;;;;28.88;22.05;;;10.60;52.90;;;;;;4952971;29;20401;-76
2022/03/20 13:06:00;;;;;;;25.60;20.20;;;10.30;54.20;;;;;;4952389;29;20097;-76
2022/03/20 13:08:31;;;;;;;27.58;21.15;;;10.40;54.60;;;;;;4952974;29;20038;-76
2022/03/20 13:10:59;;;;;;;26.15;18.77;;;10.50;53.60;;;;;;4952303;29;20035;-76
2022/03/20 13:13:36;;;;;;;30.10;21.70;;;10.70;53.40;;;;;;4952545;29;20035;-76
2022/03/20 13:16:14;;;;;;;26.83;19.15;;;11.10;54.60;;;;;;4952313;28;20079;-75
2022/03/20 13:18:40;;;;;;;27.92;21.50;;;11.60;52.60;;;;;;4941656;29;20043;-76
2022/03/20 13:21:07;;;;;;;29.02;20.77;;;12.00;52.60;;;;;;4952570;29;20043;-76
2022/03/20 13:23:33;;;;;;;26.85;22.13;;;12.30;51.80;;;;;;4952378;29;20047;-76
2022/03/20 13:26:00;;;;;;;25.10;18.90;;;12.50;51.50;;;;;;4936224;28;20043;-76
2022/03/20 13:28:30;;;;;;;28.15;21.27;;;12.60;49.90;;;;;;4952613;29;20612;-76
2022/03/20 13:30:58;;;;;;;25.83;19.52;;;12.50;50.00;;;;;;4952587;29;20433;-75
2022/03/20 13:33:40;;;;;;;26.92;21.02;;;12.40;50.00;;;;;;4952119;29;20101;-76
2022/03/20 13:36:08;;;;;;;29.05;22.48;;;12.20;50.60;;;;;;4951872;28;20098;-76
2022/03/20 13:38:43;;;;;;;28.30;21.30;;;11.90;51.40;;;;;;4944265;29;20046;-76
2022/03/20 13:41:24;;;;;;;25.88;21.90;;;11.70;51.70;;;;;;4952207;29;20043;-76
2022/03/20 13:43:57;;;;;;;26.70;21.20;;;11.60;52.60;;;;;;4952099;29;20043;-75
2022/03/20 13:46:27;;;;;;;28.15;21.90;;;11.60;53.00;;;;;;4935454;28;20065;-76
2022/03/20 13:48:53;;;;;;;29.33;21.60;;;11.60;53.40;;;;;;4929398;29;20039;-78
2022/03/20 13:51:21;;;;;;;28.00;19.95;;;11.60;53.20;;;;;;4955186;28;20043;-76
2022/03/20 13:54:15;;;;;;;28.20;22.52;;;11.70;52.90;;;;;;4946834;29;20036;-77
2022/03/20 13:56:43;;;;;;;31.98;22.60;;;11.70;54.00;;;;;;4955271;28;20046;-76
2022/03/20 13:59:12;;;;;;;30.20;23.30;;;11.90;53.10;;;;;;4917168;29;20050;-77
2022/03/20 14:01:48;;;;;;;27.73;21.38;;;11.80;54.00;;;;;;4932928;29;20079;-76
2022/03/20 14:04:22;;;;;;;32.58;25.45;;;11.90;53.20;;;;;;4950868;29;20406;-76
2022/03/20 14:06:57;;;;;;;31.02;24.27;;;11.80;54.10;;;;;;4952725;28;20122;-76
2022/03/20 14:09:39;;;;;;;30.90;23.77;;;11.70;54.00;;;;;;4945869;29;20453;-77
2022/03/20 14:12:29;;;;;;;31.08;23.35;;;11.60;54.90;;;;;;4952101;29;20054;-76
2022/03/20 14:15:15;;;;;;;31.73;23.83;;;11.50;54.70;;;;;;4951964;29;20102;-77
2022/03/20 14:17:55;;;;;;;30.30;22.98;;;11.40;55.00;;;;;;4951291;28;20497;-77
2022/03/20 14:20:26;;;;;;;31.27;23.58;;;11.30;55.60;;;;;;4951800;29;20042;-77
2022/03/20 14:23:02;;;;;;;29.63;23.25;;;11.20;55.70;;;;;;4951624;29;20494;-76
2022/03/20 14:25:42;;;;;;;29.58;22.50;;;11.20;56.20;;;;;;4951644;29;20071;-76
2022/03/20 14:28:11;;;;;;;29.02;23.23;;;11.20;56.50;;;;;;4951015;28;20043;-76
2022/03/20 14:41:55;;;;;;;30.38;22.70;;;10.90;57.20;;;;;;4955526;29;20532;-76
2022/03/20 14:44:22;;;;;;;31.15;23.45;;;10.90;57.90;;;;;;4955327;29;20047;-76
2022/03/20 14:47:02;;;;;;;33.20;23.23;;;10.80;58.50;;;;;;4938980;29;20098;-76
2022/03/20 14:49:29;;;;;;;30.55;23.52;;;10.70;58.60;;;;;;4955274;29;20062;-77
2022/03/20 14:51:55;;;;;;;30.67;23.73;;;10.60;59.60;;;;;;4939327;29;20032;-76
2022/03/20 14:54:22;;;;;;;27.77;22.77;;;10.60;60.30;;;;;;4938478;29;20078;-77
2022/03/20 14:56:47;;;;;;;32.03;24.45;;;10.50;60.30;;;;;;4955148;28;20121;-76
2022/03/20 14:59:14;;;;;;;32.22;25.85;;;10.50;61.80;;;;;;4955012;29;20122;-76
2022/03/20 15:01:43;;;;;;;33.28;24.13;;;10.40;66.60;;;;;;4955125;28;20058;-76
2022/03/20 15:04:12;;;;;;;33.50;24.33;;;10.40;65.60;;;;;;4954720;29;20051;-76
2022/03/20 15:06:39;;;;;;;33.97;25.73;;;10.40;70.70;;;;;;4954892;29;20097;-77
2022/03/20 15:11:50;;;;;;;34.88;26.42;;;10.10;71.10;;;;;;4951993;29;20062;-77
2022/03/20 15:14:15;;;;;;;34.40;27.13;;;9.90;76.90;;;;;;4954180;29;20043;-77
2022/03/20 15:16:41;;;;;;;35.58;26.08;;;9.70;79.50;;;;;;4938168;29;20033;-77
2022/03/20 15:19:07;;;;;;;36.65;28.35;;;9.70;83.20;;;;;;4954561;28;20117;-77